createdAt,value
2018-04-12T00:00:25.018Z,94.73
2018-04-12T00:01:25.157Z,94.82
2018-04-12T00:02:25.146Z,94.25
2018-04-12T00:03:25.109Z,94.54
2018-04-12T00:04:25.080Z,94.82
2018-04-12T00:05:25.224Z,94.64
2018-04-12T00:06:25.123Z,94.64
2018-04-12T00:07:25.353Z,94.73
2018-04-12T00:08:25.272Z,94.64
2018-04-12T00:09:25.188Z,94.59
2018-04-12T00:10:25.301Z,95.60
2018-04-12T00:11:25.199Z,95.17
2018-04-12T00:12:25.310Z,95.36
2018-04-12T00:13:25.233Z,95.26
2018-04-12T00:14:25.254Z,94.78
2018-04-12T00:15:25.383Z,95.94
2018-04-12T00:16:25.285Z,96.32
2018-04-12T00:17:25.403Z,95.94
2018-04-12T00:18:25.306Z,95.84
2018-04-12T00:19:25.448Z,95.94
2018-04-12T00:20:25.344Z,96.42
2018-04-12T00:21:25.366Z,96.12
2018-04-12T00:22:25.474Z,96.08
2018-04-12T00:23:25.397Z,96.22
2018-04-12T00:24:25.414Z,96.99
2018-04-12T00:25:25.543Z,96.27
2018-04-12T00:26:25.559Z,96.56
2018-04-12T00:27:25.549Z,96.85
2018-04-12T00:28:25.477Z,96.47
2018-04-12T00:29:25.607Z,96.66
2018-04-12T00:30:25.625Z,96.66
2018-04-12T00:31:25.517Z,96.66
2018-04-12T00:32:25.634Z,96.27
2018-04-12T00:33:25.555Z,96.85
2018-04-12T00:34:25.686Z,96.80
2018-04-12T00:35:25.707Z,96.70
2018-04-12T00:36:25.590Z,96.61
2018-04-12T00:37:25.715Z,96.90
2018-04-12T00:38:25.748Z,96.80
2018-04-12T00:39:25.769Z,96.70
2018-04-12T00:40:25.666Z,96.61
2018-04-12T00:41:25.681Z,96.42
2018-04-12T00:42:25.915Z,96.70
2018-04-12T00:43:25.830Z,96.51
2018-04-12T00:44:25.728Z,96.70
2018-04-12T00:45:25.734Z,97.09
2018-04-12T00:46:25.875Z,97.19
2018-04-12T00:47:25.865Z,96.99
2018-04-12T00:48:25.782Z,97.19
2018-04-12T00:49:25.877Z,97.09
2018-04-12T00:50:25.812Z,97.09
2018-04-12T00:51:25.835Z,97.09
2018-04-12T00:52:25.856Z,97.19
2018-04-12T00:53:25.973Z,96.70
2018-04-12T00:54:26.005Z,97.19
2018-04-12T00:55:25.898Z,97.04
2018-04-12T00:56:26.036Z,96.75
2018-04-12T00:57:25.930Z,97.04
2018-04-12T00:58:26.083Z,96.56
2018-04-12T00:59:26.183Z,96.47
2018-04-12T01:00:25.982Z,96.75
2018-04-12T01:01:26.001Z,96.56
2018-04-12T01:02:26.015Z,96.75
2018-04-12T01:03:26.032Z,97.04
2018-04-12T01:04:26.186Z,97.14
2018-04-12T01:05:26.056Z,96.75
2018-04-12T01:06:26.065Z,96.70
2018-04-12T01:07:26.207Z,97.09
2018-04-12T01:08:26.104Z,96.70
2018-04-12T01:09:26.312Z,97.57
2018-04-12T01:10:26.138Z,96.90
2018-04-12T01:11:26.152Z,96.99
2018-04-12T01:12:26.290Z,97.57
2018-04-12T01:13:26.175Z,97.38
2018-04-12T01:14:26.319Z,97.67
2018-04-12T01:15:26.371Z,97.76
2018-04-12T01:16:26.354Z,97.67
2018-04-12T01:17:26.364Z,97.28
2018-04-12T01:18:26.262Z,97.38
2018-04-12T01:19:26.267Z,97.38
2018-04-12T01:20:26.379Z,97.57
2018-04-12T01:21:26.307Z,96.90
2018-04-12T01:22:26.328Z,97.47
2018-04-12T01:23:26.459Z,97.67
2018-04-12T01:24:26.347Z,97.19
2018-04-12T01:25:26.589Z,97.09
2018-04-12T01:26:26.376Z,97.09
2018-04-12T01:27:26.520Z,97.38
2018-04-12T01:28:26.422Z,97.09
2018-04-12T01:29:26.554Z,97.09
2018-04-12T01:30:26.602Z,97.28
2018-04-12T01:31:26.585Z,97.28
2018-04-12T01:32:26.598Z,97.19
2018-04-12T01:33:26.489Z,97.38
2018-04-12T01:34:26.629Z,97.09
2018-04-12T01:35:26.618Z,97.19
2018-04-12T01:36:26.543Z,97.47
2018-04-12T01:37:26.546Z,96.99
2018-04-12T01:38:26.563Z,97.67
2018-04-12T01:39:26.705Z,97.76
2018-04-12T01:40:26.709Z,97.19
2018-04-12T01:41:26.740Z,97.28
2018-04-12T01:42:26.640Z,97.47
2018-04-12T01:43:26.640Z,97.67
2018-04-12T01:44:26.658Z,97.28
2018-04-12T01:45:26.952Z,97.47
2018-04-12T01:46:26.816Z,97.47
2018-04-12T01:47:26.830Z,97.57
2018-04-12T01:48:26.720Z,97.47
2018-04-12T01:49:26.743Z,97.76
2018-04-12T01:50:26.849Z,97.86
2018-04-12T01:51:26.892Z,97.67
2018-04-12T01:52:26.794Z,97.38
2018-04-12T01:53:26.928Z,98.14
2018-04-12T01:54:26.936Z,97.86
2018-04-12T01:55:26.932Z,97.47
2018-04-12T01:56:26.968Z,97.76
2018-04-12T01:57:26.872Z,97.67
2018-04-12T01:58:26.877Z,97.52
2018-04-12T01:59:27.017Z,97.42
2018-04-12T02:00:27.013Z,98.14
2018-04-12T02:01:27.049Z,97.96
2018-04-12T02:02:27.062Z,97.67
2018-04-12T02:03:26.949Z,97.96
2018-04-12T02:04:26.975Z,97.86
2018-04-12T02:05:27.078Z,97.86
2018-04-12T02:06:27.004Z,98.05
2018-04-12T02:07:27.025Z,97.96
2018-04-12T02:08:27.031Z,97.67
2018-04-12T02:09:27.170Z,97.96
2018-04-12T02:10:27.188Z,97.57
2018-04-12T02:11:27.176Z,97.67
2018-04-12T02:12:27.093Z,98.14
2018-04-12T02:13:27.108Z,97.52
2018-04-12T02:14:27.123Z,97.52
2018-04-12T02:15:27.264Z,97.14
2018-04-12T02:16:27.265Z,97.33
2018-04-12T02:17:27.184Z,97.14
2018-04-12T02:18:27.196Z,97.33
2018-04-12T02:19:27.197Z,97.57
2018-04-12T02:20:27.229Z,97.47
2018-04-12T02:21:27.331Z,97.47
2018-04-12T02:22:27.375Z,96.99
2018-04-12T02:23:27.389Z,96.80
2018-04-12T02:24:27.277Z,96.99
2018-04-12T02:25:27.303Z,96.99
2018-04-12T02:26:27.457Z,96.80
2018-04-12T02:27:27.332Z,96.61
2018-04-12T02:28:27.341Z,97.19
2018-04-12T02:29:27.484Z,97.09
2018-04-12T02:30:27.380Z,96.70
2018-04-12T02:31:27.487Z,96.80
2018-04-12T02:32:27.407Z,96.89
2018-04-12T02:33:27.548Z,96.61
2018-04-12T02:34:27.438Z,96.61
2018-04-12T02:35:27.580Z,96.80
2018-04-12T02:36:27.694Z,97.04
2018-04-12T02:37:27.612Z,96.56
2018-04-12T02:38:27.507Z,96.56
2018-04-12T02:39:27.511Z,95.98
2018-04-12T02:40:27.559Z,96.08
2018-04-12T02:41:27.717Z,96.27
2018-04-12T02:42:27.572Z,96.85
2018-04-12T02:43:27.577Z,96.42
2018-04-12T02:44:27.595Z,96.42
2018-04-12T02:45:27.739Z,96.42
2018-04-12T02:46:27.851Z,96.42
2018-04-12T02:47:27.642Z,95.94
2018-04-12T02:48:27.659Z,96.42
2018-04-12T02:49:27.801Z,96.12
2018-04-12T02:50:27.688Z,96.89
2018-04-12T02:51:27.814Z,96.22
2018-04-12T02:52:27.851Z,96.22
2018-04-12T02:53:27.873Z,96.22
2018-04-12T02:54:27.755Z,95.74
2018-04-12T02:55:27.896Z,96.61
2018-04-12T02:56:27.888Z,96.12
2018-04-12T02:57:27.800Z,96.42
2018-04-12T02:58:27.966Z,96.03
2018-04-12T02:59:27.855Z,95.79
2018-04-12T03:00:27.849Z,96.37
2018-04-12T03:01:28.145Z,95.98
2018-04-12T03:02:28.005Z,96.17
2018-04-12T03:03:27.893Z,96.75
2018-04-12T03:04:28.039Z,96.56
2018-04-12T03:05:27.935Z,96.37
2018-04-12T03:06:28.101Z,96.56
2018-04-12T03:07:28.089Z,96.70
2018-04-12T03:08:27.973Z,96.70
2018-04-12T03:09:28.117Z,96.90
2018-04-12T03:10:28.135Z,96.99
2018-04-12T03:11:28.149Z,97.09
2018-04-12T03:12:28.147Z,96.90
2018-04-12T03:13:28.055Z,96.80
2018-04-12T03:14:28.076Z,96.80
2018-04-12T03:15:28.216Z,96.90
2018-04-12T03:16:28.102Z,96.70
2018-04-12T03:17:28.224Z,97.67
2018-04-12T03:18:28.134Z,97.47
2018-04-12T03:19:28.279Z,97.76
2018-04-12T03:20:28.289Z,97.57
2018-04-12T03:21:28.183Z,97.28
2018-04-12T03:22:28.319Z,97.76
2018-04-12T03:23:28.320Z,97.09
2018-04-12T03:24:28.360Z,97.19
2018-04-12T03:25:28.370Z,97.24
2018-04-12T03:26:28.386Z,97.42
2018-04-12T03:27:28.290Z,97.24
2018-04-12T03:28:28.387Z,97.62
2018-04-12T03:29:28.434Z,97.42
2018-04-12T03:30:28.447Z,97.62
2018-04-12T03:31:28.342Z,97.42
2018-04-12T03:32:28.475Z,97.52
2018-04-12T03:33:28.364Z,96.99
2018-04-12T03:34:28.658Z,97.71
2018-04-12T03:35:28.395Z,97.28
2018-04-12T03:36:28.540Z,97.28
2018-04-12T03:37:28.552Z,97.47
2018-04-12T03:38:28.449Z,97.76
2018-04-12T03:39:28.686Z,97.81
2018-04-12T03:40:28.598Z,97.66
2018-04-12T03:41:28.616Z,97.47
2018-04-12T03:42:28.515Z,97.47
2018-04-12T03:43:28.522Z,97.28
2018-04-12T03:44:28.635Z,97.47
2018-04-12T03:45:28.553Z,97.86
2018-04-12T03:46:28.689Z,98.05
2018-04-12T03:47:28.582Z,98.24
2018-04-12T03:48:28.594Z,98.14
2018-04-12T03:49:28.822Z,97.76
2018-04-12T03:50:28.672Z,97.76
2018-04-12T03:51:28.648Z,98.34
2018-04-12T03:52:28.785Z,98.14
2018-04-12T03:53:28.800Z,97.76
2018-04-12T03:54:28.915Z,98.05
2018-04-12T03:55:28.834Z,98.05
2018-04-12T03:56:28.725Z,98.24
2018-04-12T03:57:28.732Z,98.24
2018-04-12T03:58:28.756Z,98.34
2018-04-12T03:59:28.865Z,98.24
2018-04-12T04:00:28.904Z,97.57
2018-04-12T04:01:28.922Z,98.05
2018-04-12T04:02:28.939Z,98.24
2018-04-12T04:03:28.953Z,98.05
2018-04-12T04:04:28.854Z,98.24
2018-04-12T04:05:29.003Z,98.05
2018-04-12T04:06:28.883Z,98.05
2018-04-12T04:07:29.017Z,98.05
2018-04-12T04:08:29.033Z,98.24
2018-04-12T04:09:29.048Z,98.05
2018-04-12T04:10:29.029Z,98.43
2018-04-12T04:11:28.951Z,98.43
2018-04-12T04:12:29.088Z,98.14
2018-04-12T04:13:28.974Z,98.34
2018-04-12T04:14:29.168Z,97.96
2018-04-12T04:15:29.233Z,98.05
2018-04-12T04:16:29.154Z,98.43
2018-04-12T04:17:29.047Z,98.24
2018-04-12T04:18:29.050Z,98.63
2018-04-12T04:19:29.069Z,98.72
2018-04-12T04:20:29.189Z,98.82
2018-04-12T04:21:29.099Z,98.53
2018-04-12T04:22:29.239Z,98.82
2018-04-12T04:23:29.254Z,98.72
2018-04-12T04:24:29.151Z,98.82
2018-04-12T04:25:33.691Z,98.34
2018-04-12T04:26:29.179Z,98.82
2018-04-12T04:27:29.201Z,98.72
2018-04-12T04:28:29.333Z,98.43
2018-04-12T04:29:29.346Z,99.01
2018-04-12T04:30:29.243Z,98.24
2018-04-12T04:31:29.363Z,98.24
2018-04-12T04:32:29.273Z,98.82
2018-04-12T04:33:29.411Z,98.82
2018-04-12T04:34:29.422Z,98.43
2018-04-12T04:35:29.311Z,99.01
2018-04-12T04:36:29.555Z,98.63
2018-04-12T04:37:29.349Z,98.63
2018-04-12T04:38:29.358Z,98.53
2018-04-12T04:39:29.379Z,98.82
2018-04-12T04:40:29.513Z,98.43
2018-04-12T04:41:29.631Z,98.14
2018-04-12T04:42:29.543Z,98.63
2018-04-12T04:43:29.431Z,98.43
2018-04-12T04:44:29.573Z,98.43
2018-04-12T04:45:29.479Z,99.01
2018-04-12T04:46:29.632Z,98.63
2018-04-12T04:47:29.619Z,98.72
2018-04-12T04:48:29.516Z,98.91
2018-04-12T04:49:29.653Z,98.63
2018-04-12T04:50:29.545Z,98.53
2018-04-12T04:51:29.652Z,98.63
2018-04-12T04:52:29.697Z,98.72
2018-04-12T04:53:29.593Z,98.91
2018-04-12T04:54:29.725Z,98.63
2018-04-12T04:55:29.621Z,98.34
2018-04-12T04:56:29.859Z,98.53
2018-04-12T04:57:29.770Z,98.63
2018-04-12T04:58:29.670Z,98.72
2018-04-12T04:59:29.673Z,99.01
2018-04-12T05:00:29.819Z,98.91
2018-04-12T05:01:29.939Z,99.01
2018-04-12T05:02:29.845Z,98.63
2018-04-12T05:03:29.863Z,98.53
2018-04-12T05:04:29.751Z,98.63
2018-04-12T05:05:29.773Z,98.72
2018-04-12T05:06:29.931Z,98.82
2018-04-12T05:07:29.803Z,98.63
2018-04-12T05:08:29.937Z,98.82
2018-04-12T05:09:29.952Z,98.72
2018-04-12T05:10:29.967Z,98.72
2018-04-12T05:11:29.983Z,98.63
2018-04-12T05:12:30.151Z,99.01
2018-04-12T05:13:30.013Z,99.01
2018-04-12T05:14:30.030Z,98.43
2018-04-12T05:15:30.084Z,98.53
2018-04-12T05:16:29.940Z,98.63
2018-04-12T05:17:30.096Z,98.63
2018-04-12T05:18:30.087Z,98.53
2018-04-12T05:19:29.977Z,98.63
2018-04-12T05:20:29.996Z,98.63
2018-04-12T05:21:30.135Z,98.53
2018-04-12T05:22:30.149Z,98.72
2018-04-12T05:23:30.343Z,98.91
2018-04-12T05:24:30.178Z,98.72
2018-04-12T05:25:30.196Z,98.91
2018-04-12T05:26:30.206Z,98.63
2018-04-12T05:27:30.096Z,98.82
2018-04-12T05:28:30.388Z,99.01
2018-04-12T05:29:30.136Z,98.72
2018-04-12T05:30:30.144Z,98.91
2018-04-12T05:31:30.164Z,98.63
2018-04-12T05:32:30.298Z,98.63
2018-04-12T05:33:30.465Z,98.72
2018-04-12T05:34:30.205Z,98.82
2018-04-12T05:35:30.345Z,98.63
2018-04-12T05:36:30.358Z,99.10
2018-04-12T05:37:30.385Z,98.24
2018-04-12T05:38:30.489Z,98.24
2018-04-12T05:39:30.406Z,98.14
2018-04-12T05:40:30.422Z,99.01
2018-04-12T05:41:30.435Z,99.01
2018-04-12T05:42:30.452Z,99.01
2018-04-12T05:43:30.622Z,99.01
2018-04-12T05:44:30.480Z,98.63
2018-04-12T05:45:30.370Z,98.82
2018-04-12T05:46:30.510Z,98.82
2018-04-12T05:47:30.533Z,98.82
2018-04-12T05:48:30.538Z,99.01
2018-04-12T05:49:30.655Z,98.82
2018-04-12T05:50:30.451Z,98.34
2018-04-12T05:51:30.457Z,98.63
2018-04-12T05:52:30.473Z,99.10
2018-04-12T05:53:30.499Z,99.01
2018-04-12T05:54:30.653Z,99.01
2018-04-12T05:55:30.525Z,99.10
2018-04-12T05:56:30.541Z,98.82
2018-04-12T05:57:30.550Z,98.82
2018-04-12T05:58:30.688Z,98.72
2018-04-12T05:59:30.679Z,98.82
2018-04-12T06:00:30.603Z,98.91
2018-04-12T06:01:30.743Z,98.53
2018-04-12T06:02:30.625Z,99.10
2018-04-12T06:03:30.763Z,98.72
2018-04-12T06:04:30.881Z,99.10
2018-04-12T06:05:30.666Z,98.63
2018-04-12T06:06:30.808Z,98.63
2018-04-12T06:07:30.696Z,98.72
2018-04-12T06:08:30.840Z,99.10
2018-04-12T06:09:30.960Z,98.82
2018-04-12T06:10:30.871Z,98.82
2018-04-12T06:11:30.761Z,99.01
2018-04-12T06:12:30.900Z,98.72
2018-04-12T06:13:30.916Z,99.01
2018-04-12T06:14:30.952Z,98.82
2018-04-12T06:15:30.827Z,98.91
2018-04-12T06:16:30.960Z,99.01
2018-04-12T06:17:30.858Z,99.01
2018-04-12T06:18:30.991Z,99.10
2018-04-12T06:19:31.108Z,99.01
2018-04-12T06:20:31.032Z,98.91
2018-04-12T06:21:31.037Z,98.43
2018-04-12T06:22:30.923Z,98.14
2018-04-12T06:23:31.067Z,99.01
2018-04-12T06:24:31.182Z,98.63
2018-04-12T06:25:31.099Z,98.91
2018-04-12T06:26:31.109Z,98.05
2018-04-12T06:27:31.008Z,99.01
2018-04-12T06:28:31.063Z,98.63
2018-04-12T06:29:31.042Z,98.43
2018-04-12T06:30:31.320Z,98.43
2018-04-12T06:31:31.185Z,98.43
2018-04-12T06:32:31.201Z,98.14
2018-04-12T06:33:31.215Z,98.24
2018-04-12T06:34:31.112Z,98.24
2018-04-12T06:35:31.395Z,98.24
2018-04-12T06:36:31.261Z,98.34
2018-04-12T06:37:31.151Z,98.34
2018-04-12T06:38:31.186Z,98.14
2018-04-12T06:39:31.177Z,98.05
2018-04-12T06:40:31.205Z,98.24
2018-04-12T06:41:31.371Z,97.96
2018-04-12T06:42:31.233Z,98.63
2018-04-12T06:43:31.250Z,98.43
2018-04-12T06:44:31.379Z,98.14
2018-04-12T06:45:31.273Z,98.24
2018-04-12T06:46:31.511Z,98.34
2018-04-12T06:47:31.306Z,98.24
2018-04-12T06:48:31.439Z,98.34
2018-04-12T06:49:31.455Z,98.24
2018-04-12T06:50:31.343Z,98.24
2018-04-12T06:51:31.584Z,98.34
2018-04-12T06:52:31.499Z,98.14
2018-04-12T06:53:31.389Z,98.43
2018-04-12T06:54:31.408Z,97.86
2018-04-12T06:55:31.543Z,98.05
2018-04-12T06:56:31.528Z,98.24
2018-04-12T06:57:31.490Z,98.34
2018-04-12T06:58:31.467Z,98.34
2018-04-12T06:59:31.526Z,97.76
2018-04-12T07:00:31.489Z,98.34
2018-04-12T07:01:31.786Z,98.34
2018-04-12T07:02:31.533Z,98.14
2018-04-12T07:03:31.535Z,97.96
2018-04-12T07:04:31.549Z,98.24
2018-04-12T07:05:31.573Z,98.34
2018-04-12T07:07:31.725Z,98.34
2018-04-12T07:08:31.611Z,98.24
2018-04-12T07:09:31.633Z,98.63
2018-04-12T07:10:31.644Z,98.05
2018-04-12T07:11:31.767Z,98.43
2018-04-12T07:12:31.798Z,98.34
2018-04-12T07:13:31.811Z,99.10
2018-04-12T07:14:31.825Z,99.10
2018-04-12T07:15:31.735Z,99.01
2018-04-12T07:16:31.897Z,98.91
2018-04-12T07:17:31.752Z,98.63
2018-04-12T07:18:31.773Z,98.72
2018-04-12T07:19:31.789Z,98.91
2018-04-12T07:20:31.917Z,99.01
2018-04-12T07:21:31.959Z,98.63
2018-04-12T07:22:31.825Z,98.72
2018-04-12T07:23:31.832Z,98.91
2018-04-12T07:24:31.978Z,98.82
2018-04-12T07:25:31.861Z,98.72
2018-04-12T07:26:32.106Z,98.91
2018-04-12T07:27:32.022Z,98.91
2018-04-12T07:28:31.915Z,98.14
2018-04-12T07:29:31.924Z,98.82
2018-04-12T07:30:31.943Z,98.63
2018-04-12T07:31:32.050Z,98.82
2018-04-12T07:32:31.970Z,99.15
2018-04-12T07:33:31.985Z,98.96
2018-04-12T07:34:32.001Z,98.72
2018-04-12T07:35:32.139Z,98.72
2018-04-12T07:36:32.252Z,98.48
2018-04-12T07:37:32.167Z,98.86
2018-04-12T07:38:32.054Z,98.86
2018-04-12T07:39:32.201Z,98.96
2018-04-12T07:40:32.083Z,98.29
2018-04-12T07:41:32.228Z,98.86
2018-04-12T07:42:32.231Z,98.48
2018-04-12T07:43:32.258Z,99.05
2018-04-12T07:44:32.145Z,98.96
2018-04-12T07:45:32.287Z,99.25
2018-04-12T07:46:32.305Z,99.15
2018-04-12T07:47:32.417Z,99.05
2018-04-12T07:48:32.331Z,99.25
2018-04-12T07:49:32.346Z,99.25
2018-04-12T07:50:32.362Z,98.96
2018-04-12T07:51:32.248Z,99.05
2018-04-12T07:52:32.267Z,98.96
2018-04-12T07:53:32.506Z,99.15
2018-04-12T07:54:32.422Z,98.77
2018-04-12T07:55:32.308Z,98.77
2018-04-12T07:56:32.449Z,98.86
2018-04-12T07:57:32.466Z,98.96
2018-04-12T07:58:32.579Z,99.15
2018-04-12T07:59:32.494Z,98.96
2018-04-12T08:00:32.379Z,99.82
2018-04-12T08:01:32.524Z,98.96
2018-04-12T08:02:32.541Z,98.96
2018-04-12T08:03:32.655Z,99.05
2018-04-12T08:04:32.450Z,99.34
2018-04-12T08:05:32.470Z,98.67
2018-04-12T08:06:32.474Z,99.15
2018-04-12T08:07:32.611Z,98.96
2018-04-12T08:08:32.727Z,99.15
2018-04-12T08:09:32.515Z,98.96
2018-04-12T08:10:32.655Z,98.67
2018-04-12T08:11:32.546Z,99.34
2018-04-12T08:12:32.686Z,99.15
2018-04-12T08:13:32.676Z,99.25
2018-04-12T08:14:32.718Z,99.05
2018-04-12T08:15:32.729Z,99.34
2018-04-12T08:16:32.626Z,99.05
2018-04-12T08:17:32.759Z,99.15
2018-04-12T08:18:32.742Z,99.34
2018-04-12T08:19:32.787Z,99.44
2018-04-12T08:20:32.688Z,99.44
2018-04-12T08:21:32.822Z,99.34
2018-04-12T08:22:32.832Z,99.54
2018-04-12T08:23:32.969Z,99.54
2018-04-12T08:24:32.866Z,99.34
2018-04-12T08:25:32.878Z,99.34
2018-04-12T08:26:32.764Z,99.34
2018-04-12T08:27:32.907Z,99.54
2018-04-12T08:28:32.908Z,99.34
2018-04-12T08:29:32.937Z,99.25
2018-04-12T08:30:32.956Z,99.34
2018-04-12T08:31:32.968Z,99.54
2018-04-12T08:32:32.852Z,99.44
2018-04-12T08:33:32.995Z,99.63
2018-04-12T08:34:32.991Z,99.44
2018-04-12T08:35:33.028Z,99.63
2018-04-12T08:36:33.038Z,99.44
2018-04-12T08:37:32.937Z,99.44
2018-04-12T08:38:33.066Z,99.05
2018-04-12T08:39:33.058Z,99.44
2018-04-12T08:40:32.985Z,99.34
2018-04-12T08:41:32.998Z,99.15
2018-04-12T08:42:33.128Z,99.05
2018-04-12T08:43:33.140Z,99.54
2018-04-12T08:44:33.037Z,99.15
2018-04-12T08:45:33.162Z,99.34
2018-04-12T08:46:33.186Z,99.34
2018-04-12T08:47:33.198Z,99.34
2018-04-12T08:48:33.213Z,99.15
2018-04-12T08:49:33.109Z,99.34
2018-04-12T08:50:33.343Z,99.54
2018-04-12T08:51:33.131Z,99.44
2018-04-12T08:52:33.275Z,99.54
2018-04-12T08:53:33.288Z,99.25
2018-04-12T08:54:33.173Z,99.34
2018-04-12T08:55:33.469Z,99.15
2018-04-12T08:56:33.213Z,99.25
2018-04-12T08:57:33.230Z,99.34
2018-04-12T08:58:33.233Z,99.54
2018-04-12T08:59:33.253Z,99.49
2018-04-12T09:00:33.489Z,99.49
2018-04-12T09:01:33.404Z,99.39
2018-04-12T09:02:33.297Z,99.01
2018-04-12T09:03:33.323Z,99.10
2018-04-12T09:04:33.448Z,99.68
2018-04-12T09:05:33.437Z,99.99
2018-04-12T09:06:33.476Z,99.99
2018-04-12T09:07:33.364Z,99.99
2018-04-12T09:08:33.387Z,98.82
2018-04-12T09:09:33.521Z,99.96
2018-04-12T09:10:33.512Z,99.96
2018-04-12T09:11:33.550Z,99.96
2018-04-12T09:12:33.564Z,99.39
2018-04-12T09:13:33.460Z,99.96
2018-04-12T09:14:33.591Z,99.87
2018-04-12T09:15:33.707Z,99.96
2018-04-12T09:16:33.516Z,99.68
2018-04-12T09:17:33.522Z,99.77
2018-04-12T09:18:33.540Z,99.96
2018-04-12T09:19:33.668Z,99.77
2018-04-12T09:20:33.654Z,99.68
2018-04-12T09:21:33.697Z,99.68
2018-04-12T09:22:33.716Z,99.96
2018-04-12T09:23:33.725Z,99.39
2018-04-12T09:24:33.739Z,99.87
2018-04-12T09:25:33.783Z,99.10
2018-04-12T09:26:33.767Z,98.91
2018-04-12T09:27:33.659Z,99.01
2018-04-12T09:28:33.799Z,98.82
2018-04-12T09:29:33.810Z,99.10
2018-04-12T09:30:33.925Z,99.96
2018-04-12T09:31:33.840Z,99.87
2018-04-12T09:32:33.855Z,99.68
2018-04-12T09:33:33.747Z,99.87
2018-04-12T09:34:33.884Z,99.96
2018-04-12T09:35:33.997Z,99.39
2018-04-12T09:36:33.793Z,99.77
2018-04-12T09:37:33.934Z,99.87
2018-04-12T09:38:33.944Z,99.49
2018-04-12T09:39:33.958Z,99.58
2018-04-12T09:40:33.863Z,99.58
2018-04-12T09:41:33.975Z,99.54
2018-04-12T09:42:33.873Z,99.63
2018-04-12T09:43:34.015Z,99.63
2018-04-12T09:44:34.034Z,99.82
2018-04-12T09:45:34.048Z,99.73
2018-04-12T09:46:34.035Z,99.99
2018-04-12T09:47:34.075Z,99.20
2018-04-12T09:48:33.972Z,98.82
2018-04-12T09:49:33.983Z,99.58
2018-04-12T09:50:34.121Z,99.44
2018-04-12T09:51:34.213Z,98.86
2018-04-12T09:52:34.152Z,99.92
2018-04-12T09:53:34.172Z,98.96
2018-04-12T09:54:34.182Z,99.01
2018-04-12T09:55:34.197Z,98.91
2018-04-12T09:56:34.317Z,99.11
2018-04-12T09:57:34.095Z,98.39
2018-04-12T09:58:34.243Z,98.39
2018-04-12T09:59:34.261Z,98.14
2018-04-12T10:00:34.155Z,98.05
2018-04-12T10:01:34.396Z,98.44
2018-04-12T10:02:34.188Z,98.49
2018-04-12T10:03:34.215Z,97.42
2018-04-12T10:04:34.225Z,97.09
2018-04-12T10:05:34.241Z,97.28
2018-04-12T10:06:34.478Z,96.80
2018-04-12T10:07:34.267Z,97.04
2018-04-12T10:08:34.285Z,96.85
2018-04-12T10:09:34.298Z,96.70
2018-04-12T10:10:34.316Z,94.68
2018-04-12T10:11:34.562Z,95.69
2018-04-12T10:12:34.479Z,96.08
2018-04-12T10:13:34.373Z,96.46
2018-04-12T10:14:34.514Z,94.10
2018-04-12T10:15:34.406Z,93.80
2018-04-12T10:16:34.535Z,94.82
2018-04-12T10:17:34.460Z,93.56
2018-04-12T10:18:34.585Z,93.03
2018-04-12T10:19:34.491Z,92.65
2018-04-12T10:20:34.504Z,90.71
2018-04-12T10:21:34.752Z,90.52
2018-04-12T10:22:34.665Z,90.66
2018-04-12T10:23:34.559Z,89.79
2018-04-12T10:24:34.698Z,89.64
2018-04-12T10:25:34.656Z,87.81
2018-04-12T10:26:34.835Z,86.49
2018-04-12T10:27:34.628Z,83.78
2018-04-12T10:28:34.772Z,83.78
2018-04-12T10:29:34.793Z,83.20
2018-04-12T10:30:34.813Z,82.86
2018-04-12T10:31:34.930Z,82.76
2018-04-12T10:32:34.848Z,82.86
2018-04-12T10:33:34.870Z,82.41
2018-04-12T10:34:34.772Z,82.22
2018-04-12T10:35:34.780Z,82.55
2018-04-12T10:36:34.903Z,81.39
2018-04-12T10:37:34.947Z,80.07
2018-04-12T10:38:34.837Z,76.58
2018-04-12T10:39:35.019Z,76.97
2018-04-12T10:40:34.894Z,77.49
2018-04-12T10:41:35.169Z,77.29
2018-04-12T10:42:34.930Z,75.20
2018-04-12T10:43:35.098Z,74.91
2018-04-12T10:44:35.093Z,74.85
2018-04-12T10:45:34.992Z,72.87
2018-04-12T10:46:35.097Z,71.84
2018-04-12T10:47:35.151Z,72.39
2018-04-12T10:48:35.166Z,71.80
2018-04-12T10:49:35.064Z,72.49
2018-04-12T10:50:35.207Z,72.09
2018-04-12T10:51:35.201Z,72.67
2018-04-12T10:52:35.247Z,72.33
2018-04-12T10:53:35.133Z,72.13
2018-04-12T10:54:35.288Z,71.48
2018-04-12T10:55:35.182Z,71.33
2018-04-12T10:56:35.301Z,69.48
2018-04-12T10:57:35.350Z,68.74
2018-04-12T10:58:35.242Z,68.74
2018-04-12T10:59:35.278Z,67.08
2018-04-12T11:00:35.300Z,65.75
2018-04-12T11:01:35.540Z,65.66
2018-04-12T11:02:35.456Z,64.81
2018-04-12T11:03:35.362Z,64.72
2018-04-12T11:04:35.372Z,63.65
2018-04-12T11:05:35.518Z,64.55
2018-04-12T11:06:35.529Z,64.17
2018-04-12T11:07:35.562Z,63.12
2018-04-12T11:08:35.590Z,60.33
2018-04-12T11:09:35.603Z,60.13
2018-04-12T11:10:35.501Z,60.03
2018-04-12T11:11:35.633Z,58.58
2018-04-12T11:12:35.668Z,59.06
2018-04-12T11:13:35.567Z,58.60
2018-04-12T11:14:35.713Z,57.70
2018-04-12T11:15:35.735Z,57.70
2018-04-12T11:16:35.860Z,58.25
2018-04-12T11:17:35.672Z,58.06
2018-04-12T11:18:35.675Z,59.52
2018-04-12T11:19:35.697Z,58.94
2018-04-12T11:20:35.721Z,58.81
2018-04-12T11:21:36.169Z,59.30
2018-04-12T11:22:35.889Z,60.17
2018-04-12T11:23:35.791Z,60.08
2018-04-12T11:24:35.819Z,60.00
2018-04-12T11:25:35.874Z,58.74
2018-04-12T11:26:35.980Z,58.18
2018-04-12T11:27:35.981Z,57.73
2018-04-12T11:28:36.058Z,56.68
2018-04-12T11:29:36.045Z,55.22
2018-04-12T11:30:36.066Z,55.15
2018-04-12T11:31:36.108Z,52.70
2018-04-12T11:32:36.086Z,52.31
2018-04-12T11:33:36.009Z,52.41
2018-04-12T11:34:36.033Z,52.19
2018-04-12T11:35:36.058Z,52.58
2018-04-12T11:36:36.081Z,54.02
2018-04-12T11:37:36.125Z,53.99
2018-04-12T11:38:36.226Z,54.65
2018-04-12T11:39:36.171Z,56.21
2018-04-12T11:40:36.174Z,56.21
2018-04-12T11:41:36.208Z,56.57
2018-04-12T11:42:36.336Z,56.76
2018-04-12T11:43:36.333Z,56.50
2018-04-12T11:44:36.253Z,56.01
2018-04-12T11:45:36.290Z,54.85
2018-04-12T11:46:36.305Z,55.52
2018-04-12T11:47:36.446Z,56.40
2018-04-12T11:48:36.457Z,55.16
2018-04-12T11:49:36.511Z,54.68
2018-04-12T11:50:36.514Z,54.97
2018-04-12T11:51:36.426Z,54.87
2018-04-12T11:52:36.566Z,54.48
2018-04-12T11:53:36.685Z,54.26
2018-04-12T11:54:36.480Z,55.33
2018-04-12T11:55:36.629Z,53.38
2018-04-12T11:56:36.684Z,53.50
2018-04-12T11:57:36.678Z,52.14
2018-04-12T11:58:36.687Z,51.17
2018-04-12T11:59:36.726Z,51.75
2018-04-12T12:00:36.629Z,52.40
2018-04-12T12:01:36.676Z,52.22
2018-04-12T12:02:36.785Z,51.99
2018-04-12T12:03:36.837Z,53.14
2018-04-12T12:04:36.830Z,54.30
2018-04-12T12:05:36.855Z,55.25
2018-04-12T12:06:36.760Z,55.93
2018-04-12T12:07:36.895Z,56.10
2018-04-12T12:08:37.022Z,55.80
2018-04-12T12:09:36.813Z,56.49
2018-04-12T12:10:36.959Z,56.39
2018-04-12T12:11:36.850Z,56.77
2018-04-12T12:12:36.888Z,56.77
2018-04-12T12:13:37.110Z,57.17
2018-04-12T12:14:36.931Z,56.65
2018-04-12T12:15:36.941Z,57.75
2018-04-12T12:16:36.964Z,57.62
2018-04-12T12:17:37.115Z,56.85
2018-04-12T12:18:37.004Z,58.21
2018-04-12T12:19:37.251Z,58.31
2018-04-12T12:20:37.173Z,58.01
2018-04-12T12:21:37.072Z,58.18
2018-04-12T12:22:37.213Z,58.28
2018-04-12T12:23:37.109Z,58.28
2018-04-12T12:24:37.493Z,58.76
2018-04-12T12:25:37.150Z,59.80
2018-04-12T12:26:37.299Z,59.80
2018-04-12T12:27:37.205Z,60.38
2018-04-12T12:28:37.345Z,59.90
2018-04-12T12:29:37.347Z,59.12
2018-04-12T12:30:37.266Z,59.70
2018-04-12T12:31:37.402Z,60.19
2018-04-12T12:32:37.421Z,59.80
2018-04-12T12:33:37.319Z,57.67
2018-04-12T12:34:37.442Z,57.96
2018-04-12T12:35:37.484Z,58.44
2018-04-12T12:36:37.505Z,59.03
2018-04-12T12:37:37.523Z,59.03
2018-04-12T12:38:37.410Z,58.86
2018-04-12T12:39:37.544Z,58.18
2018-04-12T12:40:37.473Z,58.21
2018-04-12T12:41:37.480Z,58.47
2018-04-12T12:42:37.509Z,58.08
2018-04-12T12:43:37.515Z,58.01
2018-04-12T12:44:37.768Z,58.11
2018-04-12T12:45:37.686Z,57.43
2018-04-12T12:46:37.580Z,57.82
2018-04-12T12:47:37.726Z,56.72
2018-04-12T12:48:37.634Z,57.01
2018-04-12T12:49:37.792Z,56.82
2018-04-12T12:50:37.786Z,56.72
2018-04-12T12:51:37.688Z,57.40
2018-04-12T12:52:37.711Z,57.28
2018-04-12T12:53:37.737Z,58.15